sensor_id;sensor_type;location;lat;lon;timestamp;pressure;altitude;pressure_sealevel;temperature
69785;BMP280;14177;51.520;6.764;2023-12-20T00:00:31;101271.66;;;8.04
69785;BMP280;14177;51.520;6.764;2023-12-20T00:02:58;101267.34;;;8.03
69785;BMP280;14177;51.520;6.764;2023-12-20T00:05:25;101284.69;;;7.98
69785;BMP280;14177;51.520;6.764;2023-12-20T00:07:53;101292.50;;;7.93
69785;BMP280;14177;51.520;6.764;2023-12-20T00:10:21;101294.28;;;7.88
69785;BMP280;14177;51.520;6.764;2023-12-20T00:12:48;101292.66;;;7.83
69785;BMP280;14177;51.520;6.764;2023-12-20T00:15:15;101300.47;;;7.77
69785;BMP280;14177;51.520;6.764;2023-12-20T00:17:42;101295.34;;;7.74
69785;BMP280;14177;51.520;6.764;2023-12-20T00:20:10;101299.66;;;7.70
69785;BMP280;14177;51.520;6.764;2023-12-20T00:22:37;101304.03;;;7.67
69785;BMP280;14177;51.520;6.764;2023-12-20T00:25:04;101296.34;;;7.61
69785;BMP280;14177;51.520;6.764;2023-12-20T00:27:31;101313.59;;;7.59
69785;BMP280;14177;51.520;6.764;2023-12-20T00:29:58;101317.91;;;7.57
69785;BMP280;14177;51.520;6.764;2023-12-20T00:32:25;101313.66;;;7.54
69785;BMP280;14177;51.520;6.764;2023-12-20T00:34:52;101313.66;;;7.53
69785;BMP280;14177;51.520;6.764;2023-12-20T00:37:19;101312.81;;;7.51
69785;BMP280;14177;51.520;6.764;2023-12-20T00:39:46;101317.16;;;7.50
69785;BMP280;14177;51.520;6.764;2023-12-20T00:42:13;101326.59;;;7.50
69785;BMP280;14177;51.520;6.764;2023-12-20T00:44:40;101324.91;;;7.49
69785;BMP280;14177;51.520;6.764;2023-12-20T00:47:07;101320.56;;;7.51
69785;BMP280;14177;51.520;6.764;2023-12-20T00:49:34;101326.59;;;7.50
69785;BMP280;14177;51.520;6.764;2023-12-20T00:52:01;101319.72;;;7.50
69785;BMP280;14177;51.520;6.764;2023-12-20T00:54:28;101321.47;;;7.48
69785;BMP280;14177;51.520;6.764;2023-12-20T00:56:57;101322.34;;;7.46
69785;BMP280;14177;51.520;6.764;2023-12-20T00:59:24;101330.97;;;7.46
69785;BMP280;14177;51.520;6.764;2023-12-20T01:01:51;101327.50;;;7.46
69785;BMP280;14177;51.520;6.764;2023-12-20T01:04:18;101330.97;;;7.46
69785;BMP280;14177;51.520;6.764;2023-12-20T01:06:45;101334.44;;;7.44
69785;BMP280;14177;51.520;6.764;2023-12-20T01:09:12;101335.28;;;7.43
69785;BMP280;14177;51.520;6.764;2023-12-20T01:11:39;101340.47;;;7.43
69785;BMP280;14177;51.520;6.764;2023-12-20T01:14:06;101337.03;;;7.42
69785;BMP280;14177;51.520;6.764;2023-12-20T01:16:33;101335.31;;;7.41
69785;BMP280;14177;51.520;6.764;2023-12-20T01:19:00;101334.47;;;7.39
69785;BMP280;14177;51.520;6.764;2023-12-20T01:21:27;101342.22;;;7.41
69785;BMP280;14177;51.520;6.764;2023-12-20T01:23:54;101350.84;;;7.40
69785;BMP280;14177;51.520;6.764;2023-12-20T01:26:21;101336.22;;;7.37
69785;BMP280;14177;51.520;6.764;2023-12-20T01:28:48;101337.97;;;7.35
69785;BMP280;14177;51.520;6.764;2023-12-20T01:31:15;101342.28;;;7.32
69785;BMP280;14177;51.520;6.764;2023-12-20T01:33:42;101342.31;;;7.29
69785;BMP280;14177;51.520;6.764;2023-12-20T01:36:09;101342.31;;;7.29
69785;BMP280;14177;51.520;6.764;2023-12-20T01:38:36;101346.69;;;7.24
69785;BMP280;14177;51.520;6.764;2023-12-20T01:41:03;101338.09;;;7.22
69785;BMP280;14177;51.520;6.764;2023-12-20T01:43:30;101336.41;;;7.18
69785;BMP280;14177;51.520;6.764;2023-12-20T01:46:07;101337.31;;;7.11
69785;BMP280;14177;51.520;6.764;2023-12-20T01:48:35;101336.47;;;7.08
69785;BMP280;14177;51.520;6.764;2023-12-20T01:51:03;101335.66;;;7.03
69785;BMP280;14177;51.520;6.764;2023-12-20T01:53:30;101339.16;;;6.97
69785;BMP280;14177;51.520;6.764;2023-12-20T01:56:00;101346.06;;;6.95
69785;BMP280;14177;51.520;6.764;2023-12-20T01:58:28;101346.94;;;6.93
69785;BMP280;14177;51.520;6.764;2023-12-20T02:00:57;101352.97;;;6.93
69785;BMP280;14177;51.520;6.764;2023-12-20T02:03:24;101342.66;;;6.90
69785;BMP280;14177;51.520;6.764;2023-12-20T02:05:53;101340.06;;;6.90
69785;BMP280;14177;51.520;6.764;2023-12-20T02:08:20;101349.53;;;6.91
69785;BMP280;14177;51.520;6.764;2023-12-20T02:10:47;101340.94;;;6.89
69785;BMP280;14177;51.520;6.764;2023-12-20T02:13:14;101342.69;;;6.87
69785;BMP280;14177;51.520;6.764;2023-12-20T02:15:41;101341.81;;;6.85
69785;BMP280;14177;51.520;6.764;2023-12-20T02:18:10;101347.88;;;6.81
69785;BMP280;14177;51.520;6.764;2023-12-20T02:20:41;101353.06;;;6.83
69785;BMP280;14177;51.520;6.764;2023-12-20T02:23:08;101341.03;;;6.77
69785;BMP280;14177;51.520;6.764;2023-12-20T02:25:35;101341.03;;;6.74
69785;BMP280;14177;51.520;6.764;2023-12-20T02:28:02;101341.91;;;6.73
69785;BMP280;14177;51.520;6.764;2023-12-20T02:30:29;101332.47;;;6.66
69785;BMP280;14177;51.520;6.764;2023-12-20T02:32:56;101346.28;;;6.62
69785;BMP280;14177;51.520;6.764;2023-12-20T02:35:24;101349.75;;;6.58
69785;BMP280;14177;51.520;6.764;2023-12-20T02:37:51;101351.47;;;6.56
69785;BMP280;14177;51.520;6.764;2023-12-20T02:40:18;101345.50;;;6.54
69785;BMP280;14177;51.520;6.764;2023-12-20T02:42:45;101344.66;;;6.52
69785;BMP280;14177;51.520;6.764;2023-12-20T02:45:12;101340.34;;;6.50
69785;BMP280;14177;51.520;6.764;2023-12-20T02:47:39;101339.50;;;6.46
69785;BMP280;14177;51.520;6.764;2023-12-20T02:50:06;101350.69;;;6.44
69785;BMP280;14177;51.520;6.764;2023-12-20T02:52:34;101354.16;;;6.41
69785;BMP280;14177;51.520;6.764;2023-12-20T02:55:01;101361.94;;;6.35
69785;BMP280;14177;51.520;6.764;2023-12-20T02:57:28;101355.91;;;6.35
69785;BMP280;14177;51.520;6.764;2023-12-20T02:59:54;101362.78;;;6.33
69785;BMP280;14177;51.520;6.764;2023-12-20T03:02:21;101352.50;;;6.31
69785;BMP280;14177;51.520;6.764;2023-12-20T03:04:48;101354.19;;;6.31
69785;BMP280;14177;51.520;6.764;2023-12-20T03:07:15;101350.78;;;6.30
69785;BMP280;14177;51.520;6.764;2023-12-20T03:09:42;101358.50;;;6.33
69785;BMP280;14177;51.520;6.764;2023-12-20T03:12:29;101357.66;;;6.31
69785;BMP280;14177;51.520;6.764;2023-12-20T03:14:56;101351.63;;;6.32
69785;BMP280;14177;51.520;6.764;2023-12-20T03:17:23;101355.06;;;6.31
69785;BMP280;14177;51.520;6.764;2023-12-20T03:19:50;101343.91;;;6.29
69785;BMP280;14177;51.520;6.764;2023-12-20T03:22:17;101340.47;;;6.26
69785;BMP280;14177;51.520;6.764;2023-12-20T03:24:44;101339.63;;;6.22
69785;BMP280;14177;51.520;6.764;2023-12-20T03:27:11;101334.47;;;6.19
69785;BMP280;14177;51.520;6.764;2023-12-20T03:29:38;101337.09;;;6.15
69785;BMP280;14177;51.520;6.764;2023-12-20T03:32:05;101337.97;;;6.14
69785;BMP280;14177;51.520;6.764;2023-12-20T03:34:32;101343.09;;;6.12
69785;BMP280;14177;51.520;6.764;2023-12-20T03:36:59;101338.81;;;6.11
69785;BMP280;14177;51.520;6.764;2023-12-20T03:39:26;101333.66;;;6.08
69785;BMP280;14177;51.520;6.764;2023-12-20T03:41:53;101331.09;;;6.08
69785;BMP280;14177;51.520;6.764;2023-12-20T03:44:20;101333.69;;;6.04
69785;BMP280;14177;51.520;6.764;2023-12-20T03:46:47;101338.84;;;6.02
69785;BMP280;14177;51.520;6.764;2023-12-20T03:49:15;101332.84;;;6.00
69785;BMP280;14177;51.520;6.764;2023-12-20T03:51:43;101334.56;;;6.01
69785;BMP280;14177;51.520;6.764;2023-12-20T03:54:10;101336.28;;;6.04
69785;BMP280;14177;51.520;6.764;2023-12-20T03:56:37;101337.97;;;6.06
69785;BMP280;14177;51.520;6.764;2023-12-20T03:59:03;101325.97;;;6.04
69785;BMP280;14177;51.520;6.764;2023-12-20T04:01:30;101321.66;;;6.03
69785;BMP280;14177;51.520;6.764;2023-12-20T04:03:57;101322.50;;;6.03
69785;BMP280;14177;51.520;6.764;2023-12-20T04:06:24;101319.94;;;6.02
69785;BMP280;14177;51.520;6.764;2023-12-20T04:08:52;101319.97;;;5.99
69785;BMP280;14177;51.520;6.764;2023-12-20T04:11:19;101329.41;;;5.98
69785;BMP280;14177;51.520;6.764;2023-12-20T04:13:46;101332.84;;;5.97
69785;BMP280;14177;51.520;6.764;2023-12-20T04:16:12;101324.22;;;6.01
69785;BMP280;14177;51.520;6.764;2023-12-20T04:18:39;101325.09;;;6.03
69785;BMP280;14177;51.520;6.764;2023-12-20T04:21:06;101319.09;;;6.03
69785;BMP280;14177;51.520;6.764;2023-12-20T04:23:34;101319.94;;;6.03
69785;BMP280;14177;51.520;6.764;2023-12-20T04:26:00;101321.66;;;6.04
69785;BMP280;14177;51.520;6.764;2023-12-20T04:28:28;101331.94;;;6.07
69785;BMP280;14177;51.520;6.764;2023-12-20T04:30:57;101337.97;;;6.09
69785;BMP280;14177;51.520;6.764;2023-12-20T04:33:24;101343.13;;;6.09
69785;BMP280;14177;51.520;6.764;2023-12-20T04:35:51;101338.84;;;6.07
69785;BMP280;14177;51.520;6.764;2023-12-20T04:38:18;101336.25;;;6.08
69785;BMP280;14177;51.520;6.764;2023-12-20T04:40:45;101332.81;;;6.08
69785;BMP280;14177;51.520;6.764;2023-12-20T04:43:12;101330.22;;;6.11
69785;BMP280;14177;51.520;6.764;2023-12-20T04:45:39;101333.66;;;6.11
69785;BMP280;14177;51.520;6.764;2023-12-20T04:48:06;101338.84;;;6.10
69785;BMP280;14177;51.520;6.764;2023-12-20T04:50:33;101337.09;;;6.10
69785;BMP280;14177;51.520;6.764;2023-12-20T04:53:00;101335.38;;;6.09
69785;BMP280;14177;51.520;6.764;2023-12-20T04:55:27;101341.41;;;6.05
69785;BMP280;14177;51.520;6.764;2023-12-20T04:57:55;101329.38;;;6.04
69785;BMP280;14177;51.520;6.764;2023-12-20T05:00:23;101324.25;;;6.03
69785;BMP280;14177;51.520;6.764;2023-12-20T05:02:51;101334.56;;;6.01
69785;BMP280;14177;51.520;6.764;2023-12-20T05:05:23;101331.13;;;6.01
69785;BMP280;14177;51.520;6.764;2023-12-20T05:07:59;101338.00;;;6.02
69785;BMP280;14177;51.520;6.764;2023-12-20T05:10:37;101331.09;;;6.02
69785;BMP280;14177;51.520;6.764;2023-12-20T05:13:17;101340.59;;;6.02
69785;BMP280;14177;51.520;6.764;2023-12-20T05:16:12;101332.84;;;6.00
69785;BMP280;14177;51.520;6.764;2023-12-20T05:18:53;101329.41;;;6.00
69785;BMP280;14177;51.520;6.764;2023-12-20T05:21:25;101326.84;;;6.00
69785;BMP280;14177;51.520;6.764;2023-12-20T05:24:04;101325.97;;;5.99
69785;BMP280;14177;51.520;6.764;2023-12-20T05:26:35;101322.53;;;6.02
69785;BMP280;14177;51.520;6.764;2023-12-20T05:29:14;101320.78;;;6.02
69785;BMP280;14177;51.520;6.764;2023-12-20T05:31:58;101314.78;;;6.03
69785;BMP280;14177;51.520;6.764;2023-12-20T05:34:37;101316.50;;;6.03
69785;BMP280;14177;51.520;6.764;2023-12-20T05:37:20;101310.47;;;6.04
69785;BMP280;14177;51.520;6.764;2023-12-20T05:40:03;101307.03;;;6.06
69785;BMP280;14177;51.520;6.764;2023-12-20T05:42:57;101302.72;;;6.05
69785;BMP280;14177;51.520;6.764;2023-12-20T05:45:38;101309.59;;;6.09
69785;BMP280;14177;51.520;6.764;2023-12-20T05:48:35;101307.88;;;6.10
69785;BMP280;14177;51.520;6.764;2023-12-20T05:51:06;101300.97;;;6.13
69785;BMP280;14177;51.520;6.764;2023-12-20T05:53:44;101307.00;;;6.17
69785;BMP280;14177;51.520;6.764;2023-12-20T05:56:14;101313.84;;;6.19
69785;BMP280;14177;51.520;6.764;2023-12-20T05:58:41;101315.53;;;6.23
69785;BMP280;14177;51.520;6.764;2023-12-20T06:01:08;101317.25;;;6.24
69785;BMP280;14177;51.520;6.764;2023-12-20T06:03:36;101323.28;;;6.26
69785;BMP280;14177;51.520;6.764;2023-12-20T06:06:07;101322.38;;;6.29
69785;BMP280;14177;51.520;6.764;2023-12-20T06:08:43;101320.66;;;6.32
69785;BMP280;14177;51.520;6.764;2023-12-20T06:11:11;101322.38;;;6.30
69785;BMP280;14177;51.520;6.764;2023-12-20T06:13:38;101312.06;;;6.33
69785;BMP280;14177;51.520;6.764;2023-12-20T06:16:06;101315.47;;;6.35
69785;BMP280;14177;51.520;6.764;2023-12-20T06:18:36;101318.94;;;6.34
69785;BMP280;14177;51.520;6.764;2023-12-20T06:21:04;101323.22;;;6.38
69785;BMP280;14177;51.520;6.764;2023-12-20T06:23:31;101323.19;;;6.41
69785;BMP280;14177;51.520;6.764;2023-12-20T06:25:58;101328.34;;;6.43
69785;BMP280;14177;51.520;6.764;2023-12-20T06:28:25;101324.84;;;6.50
69785;BMP280;14177;51.520;6.764;2023-12-20T06:30:52;101325.72;;;6.50
69785;BMP280;14177;51.520;6.764;2023-12-20T06:33:21;101319.69;;;6.51
69785;BMP280;14177;51.520;6.764;2023-12-20T06:35:50;101323.97;;;6.51
69785;BMP280;14177;51.520;6.764;2023-12-20T06:38:18;101324.00;;;6.52
69785;BMP280;14177;51.520;6.764;2023-12-20T06:40:46;101324.00;;;6.52
69785;BMP280;14177;51.520;6.764;2023-12-20T06:43:13;101315.38;;;6.53
69785;BMP280;14177;51.520;6.764;2023-12-20T06:46:00;101328.25;;;6.55
69785;BMP280;14177;51.520;6.764;2023-12-20T06:48:27;101326.50;;;6.58
69785;BMP280;14177;51.520;6.764;2023-12-20T06:50:54;101326.50;;;6.58
69785;BMP280;14177;51.520;6.764;2023-12-20T06:53:21;101323.06;;;6.59
69785;BMP280;14177;51.520;6.764;2023-12-20T06:55:48;101325.63;;;6.59
69785;BMP280;14177;51.520;6.764;2023-12-20T06:58:15;101328.22;;;6.59
69785;BMP280;14177;51.520;6.764;2023-12-20T07:00:43;101322.19;;;6.60
69785;BMP280;14177;51.520;6.764;2023-12-20T07:03:11;101310.13;;;6.62
69785;BMP280;14177;51.520;6.764;2023-12-20T07:05:38;101310.13;;;6.67
69785;BMP280;14177;51.520;6.764;2023-12-20T07:08:06;101309.25;;;6.68
69785;BMP280;14177;51.520;6.764;2023-12-20T07:10:33;101322.13;;;6.69
69785;BMP280;14177;51.520;6.764;2023-12-20T07:13:00;101310.06;;;6.73
69785;BMP280;14177;51.520;6.764;2023-12-20T07:15:27;101303.16;;;6.73
69785;BMP280;14177;51.520;6.764;2023-12-20T07:17:56;101310.06;;;6.74
69785;BMP280;14177;51.520;6.764;2023-12-20T07:20:23;101303.16;;;6.78
69785;BMP280;14177;51.520;6.764;2023-12-20T07:22:50;101319.53;;;6.77
69785;BMP280;14177;51.520;6.764;2023-12-20T07:25:17;101327.22;;;6.81
69785;BMP280;14177;51.520;6.764;2023-12-20T07:27:44;101312.56;;;6.83
69785;BMP280;14177;51.520;6.764;2023-12-20T07:30:12;101319.47;;;6.81
69785;BMP280;14177;51.520;6.764;2023-12-20T07:32:39;101319.47;;;6.83
69785;BMP280;14177;51.520;6.764;2023-12-20T07:35:07;101314.31;;;6.83
69785;BMP280;14177;51.520;6.764;2023-12-20T07:37:34;101307.38;;;6.86
69785;BMP280;14177;51.520;6.764;2023-12-20T07:40:01;101300.50;;;6.85
69785;BMP280;14177;51.520;6.764;2023-12-20T07:42:30;101306.50;;;6.87
69785;BMP280;14177;51.520;6.764;2023-12-20T07:44:57;101318.56;;;6.88
69785;BMP280;14177;51.520;6.764;2023-12-20T07:47:24;101320.28;;;6.86
69785;BMP280;14177;51.520;6.764;2023-12-20T07:49:52;101318.56;;;6.88
69785;BMP280;14177;51.520;6.764;2023-12-20T07:52:20;101321.16;;;6.88
69785;BMP280;14177;51.520;6.764;2023-12-20T07:54:49;101324.56;;;6.93
69785;BMP280;14177;51.520;6.764;2023-12-20T07:57:16;101316.78;;;6.96
69785;BMP280;14177;51.520;6.764;2023-12-20T07:59:43;101321.03;;;6.99
69785;BMP280;14177;51.520;6.764;2023-12-20T08:02:11;101308.97;;;7.01
69785;BMP280;14177;51.520;6.764;2023-12-20T08:04:38;101306.41;;;7.02
69785;BMP280;14177;51.520;6.764;2023-12-20T08:07:05;101314.13;;;7.01
69785;BMP280;14177;51.520;6.764;2023-12-20T08:09:32;101319.34;;;6.99
69785;BMP280;14177;51.520;6.764;2023-12-20T08:12:00;101320.19;;;7.01
69785;BMP280;14177;51.520;6.764;2023-12-20T08:14:27;101302.06;;;7.03
69785;BMP280;14177;51.520;6.764;2023-12-20T08:16:55;101318.44;;;7.03
69785;BMP280;14177;51.520;6.764;2023-12-20T08:19:21;101317.56;;;7.07
69785;BMP280;14177;51.520;6.764;2023-12-20T08:21:49;101307.19;;;7.10
69785;BMP280;14177;51.520;6.764;2023-12-20T08:24:16;101299.44;;;7.09
69785;BMP280;14177;51.520;6.764;2023-12-20T08:26:43;101304.63;;;7.07
69785;BMP280;14177;51.520;6.764;2023-12-20T08:29:10;101317.53;;;7.10
69785;BMP280;14177;51.520;6.764;2023-12-20T08:31:39;101313.22;;;7.12
69785;BMP280;14177;51.520;6.764;2023-12-20T08:34:06;101314.88;;;7.15
69785;BMP280;14177;51.520;6.764;2023-12-20T08:36:35;101324.34;;;7.17
69785;BMP280;14177;51.520;6.764;2023-12-20T08:39:02;101328.66;;;7.17
69785;BMP280;14177;51.520;6.764;2023-12-20T08:41:30;101317.47;;;7.16
69785;BMP280;14177;51.520;6.764;2023-12-20T08:43:57;101320.06;;;7.16
69785;BMP280;14177;51.520;6.764;2023-12-20T08:46:24;101328.63;;;7.19
69785;BMP280;14177;51.520;6.764;2023-12-20T08:48:51;101334.66;;;7.20
69785;BMP280;14177;51.520;6.764;2023-12-20T08:51:18;101325.19;;;7.20
69785;BMP280;14177;51.520;6.764;2023-12-20T08:53:46;101321.75;;;7.20
69785;BMP280;14177;51.520;6.764;2023-12-20T08:56:15;101324.31;;;7.18
69785;BMP280;14177;51.520;6.764;2023-12-20T08:58:42;101326.94;;;7.17
69785;BMP280;14177;51.520;6.764;2023-12-20T09:01:09;101328.66;;;7.17
69785;BMP280;14177;51.520;6.764;2023-12-20T09:03:36;101320.06;;;7.16
69785;BMP280;14177;51.520;6.764;2023-12-20T09:06:04;101309.72;;;7.16
69785;BMP280;14177;51.520;6.764;2023-12-20T09:08:32;101311.44;;;7.17
69785;BMP280;14177;51.520;6.764;2023-12-20T09:11:00;101317.41;;;7.20
69785;BMP280;14177;51.520;6.764;2023-12-20T09:13:27;101304.53;;;7.19
69785;BMP280;14177;51.520;6.764;2023-12-20T09:15:56;101305.41;;;7.18
69785;BMP280;14177;51.520;6.764;2023-12-20T09:18:24;101302.81;;;7.17
69785;BMP280;14177;51.520;6.764;2023-12-20T09:20:51;101303.69;;;7.17
69785;BMP280;14177;51.520;6.764;2023-12-20T09:23:18;101305.41;;;7.18
69785;BMP280;14177;51.520;6.764;2023-12-20T09:25:45;101301.94;;;7.18
69785;BMP280;14177;51.520;6.764;2023-12-20T09:28:12;101300.22;;;7.17
69785;BMP280;14177;51.520;6.764;2023-12-20T09:30:39;101295.94;;;7.17
69785;BMP280;14177;51.520;6.764;2023-12-20T09:33:07;101293.34;;;7.17
69785;BMP280;14177;51.520;6.764;2023-12-20T09:35:35;101290.78;;;7.17
69785;BMP280;14177;51.520;6.764;2023-12-20T09:38:02;101292.47;;;7.17
69785;BMP280;14177;51.520;6.764;2023-12-20T09:40:32;101287.31;;;7.18
69785;BMP280;14177;51.520;6.764;2023-12-20T09:43:14;101301.91;;;7.20
69785;BMP280;14177;51.520;6.764;2023-12-20T09:45:47;101321.69;;;7.26
69785;BMP280;14177;51.520;6.764;2023-12-20T09:48:20;101304.47;;;7.25
69785;BMP280;14177;51.520;6.764;2023-12-20T09:50:56;101323.41;;;7.27
69785;BMP280;14177;51.520;6.764;2023-12-20T09:53:28;101304.38;;;7.31
69785;BMP280;14177;51.520;6.764;2023-12-20T09:56:02;101309.53;;;7.34
69785;BMP280;14177;51.520;6.764;2023-12-20T09:58:40;101305.19;;;7.36
69785;BMP280;14177;51.520;6.764;2023-12-20T10:01:17;101305.19;;;7.36
69785;BMP280;14177;51.520;6.764;2023-12-20T10:03:57;101306.03;;;7.38
69785;BMP280;14177;51.520;6.764;2023-12-20T10:06:42;101309.47;;;7.40
69785;BMP280;14177;51.520;6.764;2023-12-20T10:09:13;101313.78;;;7.42
69785;BMP280;14177;51.520;6.764;2023-12-20T10:11:44;101310.28;;;7.45
69785;BMP280;14177;51.520;6.764;2023-12-20T10:18:24;101306.75;;;7.56
69785;BMP280;14177;51.520;6.764;2023-12-20T10:24:08;101287.75;;;7.60
69785;BMP280;14177;51.520;6.764;2023-12-20T10:26:48;101281.66;;;7.63
69785;BMP280;14177;51.520;6.764;2023-12-20T10:29:41;101293.72;;;7.64
69785;BMP280;14177;51.520;6.764;2023-12-20T10:32:28;101289.38;;;7.66
69785;BMP280;14177;51.520;6.764;2023-12-20T10:35:28;101283.31;;;7.68
69785;BMP280;14177;51.520;6.764;2023-12-20T10:38:32;101273.84;;;7.69
69785;BMP280;14177;51.520;6.764;2023-12-20T10:41:35;101274.69;;;7.71
69785;BMP280;14177;51.520;6.764;2023-12-20T10:44:40;101260.88;;;7.72
69785;BMP280;14177;51.520;6.764;2023-12-20T10:47:16;101261.72;;;7.72
69785;BMP280;14177;51.520;6.764;2023-12-20T10:49:47;101264.28;;;7.74
69785;BMP280;14177;51.520;6.764;2023-12-20T10:52:29;101268.59;;;7.75
69785;BMP280;14177;51.520;6.764;2023-12-20T10:55:29;101270.28;;;7.77
69785;BMP280;14177;51.520;6.764;2023-12-20T10:58:11;101278.88;;;7.79
69785;BMP280;14177;51.520;6.764;2023-12-20T11:01:12;101274.56;;;7.80
69785;BMP280;14177;51.520;6.764;2023-12-20T11:03:57;101266.75;;;7.84
69785;BMP280;14177;51.520;6.764;2023-12-20T11:06:53;101279.69;;;7.86
69785;BMP280;14177;51.520;6.764;2023-12-20T11:10:00;101270.19;;;7.85
69785;BMP280;14177;51.520;6.764;2023-12-20T11:12:57;101263.34;;;7.79
69785;BMP280;14177;51.520;6.764;2023-12-20T11:15:44;101263.34;;;7.79
69785;BMP280;14177;51.520;6.764;2023-12-20T11:18:34;101268.56;;;7.78
69785;BMP280;14177;51.520;6.764;2023-12-20T11:21:14;101264.22;;;7.78
69785;BMP280;14177;51.520;6.764;2023-12-20T11:23:56;101256.47;;;7.78
69785;BMP280;14177;51.520;6.764;2023-12-20T11:26:33;101253.91;;;7.77
69785;BMP280;14177;51.520;6.764;2023-12-20T11:29:36;101256.50;;;7.75
69785;BMP280;14177;51.520;6.764;2023-12-20T11:32:34;101253.03;;;7.78
69785;BMP280;14177;51.520;6.764;2023-12-20T11:35:33;101234.97;;;7.75
69785;BMP280;14177;51.520;6.764;2023-12-20T11:38:22;101226.34;;;7.76
69785;BMP280;14177;51.520;6.764;2023-12-20T11:41:04;101226.31;;;7.77
69785;BMP280;14177;51.520;6.764;2023-12-20T11:43:53;101239.22;;;7.79
69785;BMP280;14177;51.520;6.764;2023-12-20T11:46:27;101227.22;;;7.75
69785;BMP280;14177;51.520;6.764;2023-12-20T11:49:01;101228.09;;;7.74
69785;BMP280;14177;51.520;6.764;2023-12-20T11:51:40;101229.84;;;7.72
69785;BMP280;14177;51.520;6.764;2023-12-20T11:54:16;101222.06;;;7.70
69785;BMP280;14177;51.520;6.764;2023-12-20T11:56:52;101218.63;;;7.71
69785;BMP280;14177;51.520;6.764;2023-12-20T11:59:29;101218.66;;;7.70
69785;BMP280;14177;51.520;6.764;2023-12-20T12:02:21;101214.31;;;7.72
69785;BMP280;14177;51.520;6.764;2023-12-20T12:05:10;101206.53;;;7.75
69785;BMP280;14177;51.520;6.764;2023-12-20T12:08:03;101220.25;;;7.80
69785;BMP280;14177;51.520;6.764;2023-12-20T12:11:00;101216.69;;;7.88
69785;BMP280;14177;51.520;6.764;2023-12-20T12:13:32;101214.94;;;7.92
69785;BMP280;14177;51.520;6.764;2023-12-20T12:16:25;101220.06;;;7.93
69785;BMP280;14177;51.520;6.764;2023-12-20T12:18:59;101196.78;;;7.95
69785;BMP280;14177;51.520;6.764;2023-12-20T12:21:29;101202.75;;;8.00
69785;BMP280;14177;51.520;6.764;2023-12-20T12:24:09;101213.84;;;8.05
69785;BMP280;14177;51.520;6.764;2023-12-20T12:26:58;101200.88;;;8.08
69785;BMP280;14177;51.520;6.764;2023-12-20T12:30:25;101206.84;;;8.13
69785;BMP280;14177;51.520;6.764;2023-12-20T12:33:32;101217.19;;;8.17
69785;BMP280;14177;51.520;6.764;2023-12-20T12:36:15;101199.03;;;8.19
69785;BMP280;14177;51.520;6.764;2023-12-20T12:39:03;101195.56;;;8.21
69785;BMP280;14177;51.520;6.764;2023-12-20T12:41:40;101197.28;;;8.21
69785;BMP280;14177;51.520;6.764;2023-12-20T12:44:11;101183.44;;;8.22
69785;BMP280;14177;51.520;6.764;2023-12-20T12:46:55;101167.91;;;8.22
69785;BMP280;14177;51.520;6.764;2023-12-20T12:49:33;101182.56;;;8.23
69785;BMP280;14177;51.520;6.764;2023-12-20T12:52:03;101193.84;;;8.20
69785;BMP280;14177;51.520;6.764;2023-12-20T12:54:41;101178.28;;;8.22
69785;BMP280;14177;51.520;6.764;2023-12-20T12:57:26;101172.31;;;8.18
69785;BMP280;14177;51.520;6.764;2023-12-20T13:00:09;101168.81;;;8.21
69785;BMP280;14177;51.520;6.764;2023-12-20T13:02:43;101175.72;;;8.19
69785;BMP280;14177;51.520;6.764;2023-12-20T13:05:31;101175.75;;;8.16
69785;BMP280;14177;51.520;6.764;2023-12-20T13:08:29;101155.97;;;8.12
69785;BMP280;14177;51.520;6.764;2023-12-20T13:11:02;101153.38;;;8.13
69785;BMP280;14177;51.520;6.764;2023-12-20T13:13:59;101146.47;;;8.12
69785;BMP280;14177;51.520;6.764;2023-12-20T13:17:17;101139.59;;;8.10
69785;BMP280;14177;51.520;6.764;2023-12-20T13:20:33;101133.59;;;8.09
69785;BMP280;14177;51.520;6.764;2023-12-20T13:23:20;101131.00;;;8.08
69785;BMP280;14177;51.520;6.764;2023-12-20T13:26:09;101132.75;;;8.06
69785;BMP280;14177;51.520;6.764;2023-12-20T13:28:54;101135.47;;;7.98
69785;BMP280;14177;51.520;6.764;2023-12-20T13:31:31;101134.66;;;7.96
69785;BMP280;14177;51.520;6.764;2023-12-20T13:34:09;101122.63;;;7.94
69785;BMP280;14177;51.520;6.764;2023-12-20T13:36:39;101115.75;;;7.93
69785;BMP280;14177;51.520;6.764;2023-12-20T13:39:29;101119.22;;;7.92
69785;BMP280;14177;51.520;6.764;2023-12-20T13:42:03;101131.31;;;7.90
69785;BMP280;14177;51.520;6.764;2023-12-20T13:44:38;101121.81;;;7.90
69785;BMP280;14177;51.520;6.764;2023-12-20T13:47:12;101105.50;;;7.87
69785;BMP280;14177;51.520;6.764;2023-12-20T13:49:55;101108.94;;;7.86
69785;BMP280;14177;51.520;6.764;2023-12-20T13:52:41;101095.97;;;7.87
69785;BMP280;14177;51.520;6.764;2023-12-20T13:55:29;101109.78;;;7.86
69785;BMP280;14177;51.520;6.764;2023-12-20T13:58:12;101107.19;;;7.88
69785;BMP280;14177;51.520;6.764;2023-12-20T14:01:02;101095.97;;;7.89
69785;BMP280;14177;51.520;6.764;2023-12-20T14:03:46;101101.16;;;7.87
69785;BMP280;14177;51.520;6.764;2023-12-20T14:06:34;101093.44;;;7.86
69785;BMP280;14177;51.520;6.764;2023-12-20T14:09:18;101100.34;;;7.84
69785;BMP280;14177;51.520;6.764;2023-12-20T14:11:46;101093.47;;;7.83
69785;BMP280;14177;51.520;6.764;2023-12-20T14:14:14;101093.53;;;7.78
69785;BMP280;14177;51.520;6.764;2023-12-20T14:16:43;101086.69;;;7.76
69785;BMP280;14177;51.520;6.764;2023-12-20T14:19:12;101084.09;;;7.74
69785;BMP280;14177;51.520;6.764;2023-12-20T14:21:39;101088.44;;;7.72
69785;BMP280;14177;51.520;6.764;2023-12-20T14:24:07;101085.84;;;7.72
69785;BMP280;14177;51.520;6.764;2023-12-20T14:26:34;101092.72;;;7.73
69785;BMP280;14177;51.520;6.764;2023-12-20T14:29:01;101094.47;;;7.73
69785;BMP280;14177;51.520;6.764;2023-12-20T14:31:28;101097.06;;;7.73
69785;BMP280;14177;51.520;6.764;2023-12-20T14:33:56;101101.38;;;7.72
69785;BMP280;14177;51.520;6.764;2023-12-20T14:36:23;101088.47;;;7.71
69785;BMP280;14177;51.520;6.764;2023-12-20T14:38:50;101089.34;;;7.68
69785;BMP280;14177;51.520;6.764;2023-12-20T14:41:17;101090.22;;;7.69
69785;BMP280;14177;51.520;6.764;2023-12-20T14:43:45;101091.09;;;7.68
69785;BMP280;14177;51.520;6.764;2023-12-20T14:46:13;101093.66;;;7.71
69785;BMP280;14177;51.520;6.764;2023-12-20T14:48:42;101091.06;;;7.71